Dalhart, Texas
Current Conditions -  °F | °C
As of 3:53 PM on Monday 22 Dec 2014 (Local Time) from KDHT Reporting Station
Overcast Overcast  
Wind Chill: 39°   Ceiling: 3400
Heat Index: 39°   Visibility: 10mi
Dew Point: 31°   Wind: 3mph
Humidity: 73%   Direction: NA
Pressure: 29.73"   Gusts: NA
Location:  36.06°N, 102.52°W
Report Text: KDHT 222153Z AUTO VRB03KT 10SM OVC034 04/M01 A2973 RMK AO2 SLP058 T00391006
Loading
Personal Weather Stations






























Interactive Weather Map New forecast layout! Learn more

10-Day Weather Forecast

Advertisements
Track Severe Weather on mobile